sensor_id;sensor_type;location;lat;lon;timestamp;pressure;altitude;pressure_sealevel;temperature;humidity
2401;BME280;1211;43.200;27.914;2023-01-13T00:00:24;101865.28;;;5.55;nan
2401;BME280;1211;43.200;27.914;2023-01-13T00:02:50;101860.91;;;5.59;nan
2401;BME280;1211;43.200;27.914;2023-01-13T00:05:18;101869.72;;;5.71;nan
2401;BME280;1211;43.200;27.914;2023-01-13T00:07:45;101870.25;;;5.63;nan
2401;BME280;1211;43.200;27.914;2023-01-13T00:10:13;101876.41;;;5.96;nan
2401;BME280;1211;43.200;27.914;2023-01-13T00:12:41;101872.47;;;5.76;nan
2401;BME280;1211;43.200;27.914;2023-01-13T00:15:08;101862.59;;;5.70;nan
2401;BME280;1211;43.200;27.914;2023-01-13T00:17:36;101866.97;;;5.66;nan
2401;BME280;1211;43.200;27.914;2023-01-13T00:20:03;101841.75;;;5.49;nan
2401;BME280;1211;43.200;27.914;2023-01-13T00:22:32;101824.72;;;5.32;nan
2401;BME280;1211;43.200;27.914;2023-01-13T00:25:00;100433.25;;;-3.11;nan
2401;BME280;1211;43.200;27.914;2023-01-13T00:27:28;99464.25;;;-9.09;nan
2401;BME280;1211;43.200;27.914;2023-01-13T00:29:55;101851.34;;;5.57;nan
2401;BME280;1211;43.200;27.914;2023-01-13T00:32:22;101871.91;;;5.69;nan
2401;BME280;1211;43.200;27.914;2023-01-13T00:34:49;101851.31;;;6.14;nan
2401;BME280;1211;43.200;27.914;2023-01-13T00:37:15;101834.66;;;6.31;nan
2401;BME280;1211;43.200;27.914;2023-01-13T00:39:44;101833.28;;;6.33;nan
2401;BME280;1211;43.200;27.914;2023-01-13T00:42:11;101819.56;;;6.23;nan
2401;BME280;1211;43.200;27.914;2023-01-13T00:44:55;101823.13;;;6.29;nan
2401;BME280;1211;43.200;27.914;2023-01-13T00:47:22;101819.56;;;6.23;nan
2401;BME280;1211;43.200;27.914;2023-01-13T00:49:49;101816.56;;;6.09;nan
2401;BME280;1211;43.200;27.914;2023-01-13T00:52:15;101814.94;;;6.34;nan
2401;BME280;1211;43.200;27.914;2023-01-13T00:54:43;101812.50;;;6.32;nan
2401;BME280;1211;43.200;27.914;2023-01-13T00:57:10;101827.97;;;5.86;nan
2401;BME280;1211;43.200;27.914;2023-01-13T00:59:39;101832.09;;;5.89;nan
2401;BME280;1211;43.200;27.914;2023-01-13T01:02:06;101829.94;;;6.06;nan
2401;BME280;1211;43.200;27.914;2023-01-13T01:04:32;101834.25;;;5.87;nan
2401;BME280;1211;43.200;27.914;2023-01-13T01:06:59;100377.69;;;-3.17;nan
2401;BME280;1211;43.200;27.914;2023-01-13T01:09:26;101848.00;;;6.12;nan
2401;BME280;1211;43.200;27.914;2023-01-13T01:11:58;101854.28;;;5.97;nan
2401;BME280;1211;43.200;27.914;2023-01-13T01:14:25;101843.31;;;5.92;nan
2401;BME280;1211;43.200;27.914;2023-01-13T01:16:52;101835.41;;;6.06;nan
2401;BME280;1211;43.200;27.914;2023-01-13T01:19:19;101837.88;;;6.02;nan
2401;BME280;1211;43.200;27.914;2023-01-13T01:21:46;101848.53;;;5.99;nan
2401;BME280;1211;43.200;27.914;2023-01-13T01:24:12;101837.22;;;5.75;nan
2401;BME280;1211;43.200;27.914;2023-01-13T01:26:40;101845.44;;;5.80;nan
2401;BME280;1211;43.200;27.914;2023-01-13T01:29:10;101843.84;;;5.89;nan
2401;BME280;1211;43.200;27.914;2023-01-13T01:31:37;101832.94;;;5.99;nan
2401;BME280;1211;43.200;27.914;2023-01-13T01:34:04;101833.66;;;5.74;nan
2401;BME280;1211;43.200;27.914;2023-01-13T01:36:30;101836.53;;;6.15;nan
2401;BME280;1211;43.200;27.914;2023-01-13T01:38:59;101824.78;;;6.19;nan
2401;BME280;1211;43.200;27.914;2023-01-13T01:41:26;101829.66;;;5.97;nan
2401;BME280;1211;43.200;27.914;2023-01-13T01:43:54;101822.31;;;6.18;nan
2401;BME280;1211;43.200;27.914;2023-01-13T01:46:33;101829.44;;;6.24;nan
2401;BME280;1211;43.200;27.914;2023-01-13T01:49:02;101820.66;;;6.12;nan
2401;BME280;1211;43.200;27.914;2023-01-13T01:51:32;101817.09;;;5.96;nan
2401;BME280;1211;43.200;27.914;2023-01-13T01:54:00;101810.78;;;5.91;nan
2401;BME280;1211;43.200;27.914;2023-01-13T01:56:28;101816.00;;;5.97;nan
2401;BME280;1211;43.200;27.914;2023-01-13T01:58:55;101818.50;;;6.34;nan
2401;BME280;1211;43.200;27.914;2023-01-13T02:01:22;101815.19;;;6.22;nan
2401;BME280;1211;43.200;27.914;2023-01-13T02:03:53;101816.59;;;6.30;nan
2401;BME280;1211;43.200;27.914;2023-01-13T02:06:21;101810.84;;;6.36;nan
2401;BME280;1211;43.200;27.914;2023-01-13T02:08:49;101816.59;;;6.30;nan
2401;BME280;1211;43.200;27.914;2023-01-13T02:11:27;101809.16;;;6.05;nan
2401;BME280;1211;43.200;27.914;2023-01-13T02:14:07;101816.00;;;6.02;nan
2401;BME280;1211;43.200;27.914;2023-01-13T02:16:34;101821.53;;;6.33;nan
2401;BME280;1211;43.200;27.914;2023-01-13T02:19:05;101825.91;;;6.39;nan
2401;BME280;1211;43.200;27.914;2023-01-13T02:21:50;101810.84;;;6.31;nan
2401;BME280;1211;43.200;27.914;2023-01-13T02:24:24;101811.97;;;6.55;nan
2401;BME280;1211;43.200;27.914;2023-01-13T02:30:06;101814.66;;;6.96;nan
2401;BME280;1211;43.200;27.914;2023-01-13T02:32:54;101805.34;;;6.82;nan
2401;BME280;1211;43.200;27.914;2023-01-13T02:35:26;101800.47;;;6.33;nan
2401;BME280;1211;43.200;27.914;2023-01-13T02:37:53;101817.97;;;6.52;nan
2401;BME280;1211;43.200;27.914;2023-01-13T02:40:23;101815.75;;;6.80;nan
2401;BME280;1211;43.200;27.914;2023-01-13T02:42:51;101805.94;;;6.43;nan
2401;BME280;1211;43.200;27.914;2023-01-13T02:45:42;101807.81;;;6.12;nan
2401;BME280;1211;43.200;27.914;2023-01-13T02:48:11;101813.53;;;6.11;nan
2401;BME280;1211;43.200;27.914;2023-01-13T02:50:41;101816.03;;;6.22;nan
2401;BME280;1211;43.200;27.914;2023-01-13T02:53:10;101829.72;;;6.43;nan
2401;BME280;1211;43.200;27.914;2023-01-13T02:55:41;101834.38;;;6.27;nan
2401;BME280;1211;43.200;27.914;2023-01-13T02:58:12;100826.16;;;0.08;nan
2401;BME280;1211;43.200;27.914;2023-01-13T03:00:39;101825.03;;;6.03;nan
2401;BME280;1211;43.200;27.914;2023-01-13T03:03:07;101831.91;;;6.20;nan
2401;BME280;1211;43.200;27.914;2023-01-13T03:05:34;101819.88;;;6.67;nan
2401;BME280;1211;43.200;27.914;2023-01-13T03:08:04;101811.41;;;6.53;nan
2401;BME280;1211;43.200;27.914;2023-01-13T03:10:41;101802.94;;;6.50;nan
2401;BME280;1211;43.200;27.914;2023-01-13T03:13:29;101806.19;;;6.47;nan
2401;BME280;1211;43.200;27.914;2023-01-13T03:16:03;101815.75;;;6.85;nan
2401;BME280;1211;43.200;27.914;2023-01-13T03:18:38;101811.97;;;6.55;nan
2401;BME280;1211;43.200;27.914;2023-01-13T03:21:07;101822.34;;;6.63;nan
2401;BME280;1211;43.200;27.914;2023-01-13T03:23:40;101825.06;;;6.63;nan
2401;BME280;1211;43.200;27.914;2023-01-13T03:26:16;101819.03;;;6.82;nan
2401;BME280;1211;43.200;27.914;2023-01-13T03:28:48;101809.72;;;6.83;nan
2401;BME280;1211;43.200;27.914;2023-01-13T03:31:17;101810.31;;;6.49;nan
2401;BME280;1211;43.200;27.914;2023-01-13T03:33:49;101812.75;;;6.51;nan
2401;BME280;1211;43.200;27.914;2023-01-13T03:36:18;101813.03;;;6.34;nan
2401;BME280;1211;43.200;27.914;2023-01-13T03:38:50;101813.59;;;6.56;nan
2401;BME280;1211;43.200;27.914;2023-01-13T03:41:20;101809.75;;;6.32;nan
2401;BME280;1211;43.200;27.914;2023-01-13T03:43:49;101831.09;;;6.66;nan
2401;BME280;1211;43.200;27.914;2023-01-13T03:46:35;101826.19;;;6.73;nan
2401;BME280;1211;43.200;27.914;2023-01-13T03:49:05;101831.06;;;6.10;nan
2401;BME280;1211;43.200;27.914;2023-01-13T03:51:36;101831.03;;;6.05;nan
2401;BME280;1211;43.200;27.914;2023-01-13T03:54:07;101834.38;;;6.47;nan
2401;BME280;1211;43.200;27.914;2023-01-13T03:56:37;101825.91;;;6.49;nan
2401;BME280;1211;43.200;27.914;2023-01-13T03:59:05;101835.47;;;6.46;nan
2401;BME280;1211;43.200;27.914;2023-01-13T04:01:34;101843.63;;;6.06;nan
2401;BME280;1211;43.200;27.914;2023-01-13T04:04:03;101834.38;;;6.27;nan
2401;BME280;1211;43.200;27.914;2023-01-13T04:06:34;101841.47;;;6.28;nan
2401;BME280;1211;43.200;27.914;2023-01-13T04:09:05;101846.97;;;6.33;nan
2401;BME280;1211;43.200;27.914;2023-01-13T04:11:34;101847.44;;;6.05;nan
2401;BME280;1211;43.200;27.914;2023-01-13T04:14:04;101851.78;;;5.91;nan
2401;BME280;1211;43.200;27.914;2023-01-13T04:16:35;101852.38;;;6.03;nan
2401;BME280;1211;43.200;27.914;2023-01-13T04:19:01;101860.59;;;6.13;nan
2401;BME280;1211;43.200;27.914;2023-01-13T04:21:28;101861.69;;;6.22;nan
2401;BME280;1211;43.200;27.914;2023-01-13T04:23:57;101861.22;;;6.60;nan
2401;BME280;1211;43.200;27.914;2023-01-13T04:26:24;101858.44;;;6.45;nan
2401;BME280;1211;43.200;27.914;2023-01-13T04:28:50;101863.56;;;6.01;nan
2401;BME280;1211;43.200;27.914;2023-01-13T04:31:18;101866.56;;;5.95;nan
2401;BME280;1211;43.200;27.914;2023-01-13T04:33:45;101856.81;;;5.57;nan
2401;BME280;1211;43.200;27.914;2023-01-13T04:36:12;101068.19;;;0.50;nan
2401;BME280;1211;43.200;27.914;2023-01-13T04:38:39;101883.69;;;5.75;nan
2401;BME280;1211;43.200;27.914;2023-01-13T04:41:07;101886.34;;;5.65;nan
2401;BME280;1211;43.200;27.914;2023-01-13T04:43:34;101891.03;;;5.64;nan
2401;BME280;1211;43.200;27.914;2023-01-13T04:46:01;99184.75;;;-10.97;nan
2401;BME280;1211;43.200;27.914;2023-01-13T04:48:27;101891.16;;;5.95;nan
2401;BME280;1211;43.200;27.914;2023-01-13T04:50:54;101909.38;;;5.74;nan
2401;BME280;1211;43.200;27.914;2023-01-13T04:53:22;101902.59;;;5.82;nan
2401;BME280;1211;43.200;27.914;2023-01-13T04:55:50;97969.59;;;-18.30;nan
2401;BME280;1211;43.200;27.914;2023-01-13T04:58:18;101021.72;;;0.15;nan
2401;BME280;1211;43.200;27.914;2023-01-13T05:00:45;99270.38;;;-10.53;nan
2401;BME280;1211;43.200;27.914;2023-01-13T05:03:13;97272.81;;;-22.91;nan
2401;BME280;1211;43.200;27.914;2023-01-13T05:05:40;98306.47;;;-16.71;nan
2401;BME280;1211;43.200;27.914;2023-01-13T05:08:07;99096.22;;;-11.50;nan
2401;BME280;1211;43.200;27.914;2023-01-13T05:10:34;97587.28;;;-20.89;nan
2401;BME280;1211;43.200;27.914;2023-01-13T05:13:01;97964.44;;;-18.75;nan
2401;BME280;1211;43.200;27.914;2023-01-13T05:15:46;98200.94;;;-17.44;nan
2401;BME280;1211;43.200;27.914;2023-01-13T05:18:30;99309.25;;;-10.52;nan
2401;BME280;1211;43.200;27.914;2023-01-13T05:20:57;99375.75;;;-10.11;nan
2401;BME280;1211;43.200;27.914;2023-01-13T05:23:24;99430.84;;;-10.00;nan
2401;BME280;1211;43.200;27.914;2023-01-13T05:26:09;99510.97;;;-9.60;nan
2401;BME280;1211;43.200;27.914;2023-01-13T05:28:35;98134.50;;;-17.83;nan
2401;BME280;1211;43.200;27.914;2023-01-13T05:31:04;98707.44;;;-14.13;nan
2401;BME280;1211;43.200;27.914;2023-01-13T05:33:31;99763.97;;;-7.80;nan
2401;BME280;1211;43.200;27.914;2023-01-13T05:36:00;100413.38;;;-4.00;nan
2401;BME280;1211;43.200;27.914;2023-01-13T05:38:30;99635.69;;;-8.55;nan
2401;BME280;1211;43.200;27.914;2023-01-13T05:40:57;97854.28;;;-19.38;nan
2401;BME280;1211;43.200;27.914;2023-01-13T05:43:41;98006.44;;;-18.44;nan
2401;BME280;1211;43.200;27.914;2023-01-13T05:46:12;100341.78;;;-3.90;nan
2401;BME280;1211;43.200;27.914;2023-01-13T05:48:41;99333.28;;;-10.17;nan
2401;BME280;1211;43.200;27.914;2023-01-13T05:51:09;99363.03;;;-10.09;nan
2401;BME280;1211;43.200;27.914;2023-01-13T05:53:36;99237.50;;;-10.70;nan
2401;BME280;1211;43.200;27.914;2023-01-13T05:56:05;99510.97;;;-9.06;nan
2401;BME280;1211;43.200;27.914;2023-01-13T05:58:32;100238.13;;;-4.59;nan
2401;BME280;1211;43.200;27.914;2023-01-13T06:01:00;99102.13;;;-11.48;nan
2401;BME280;1211;43.200;27.914;2023-01-13T06:03:29;100583.22;;;-2.67;nan
2401;BME280;1211;43.200;27.914;2023-01-13T06:05:56;101368.31;;;2.02;nan
2401;BME280;1211;43.200;27.914;2023-01-13T06:08:26;100828.59;;;-1.38;nan
2401;BME280;1211;43.200;27.914;2023-01-13T06:10:53;101959.09;;;5.71;nan
2401;BME280;1211;43.200;27.914;2023-01-13T06:13:21;101972.03;;;5.86;nan
2401;BME280;1211;43.200;27.914;2023-01-13T06:15:49;101840.19;;;5.11;nan
2401;BME280;1211;43.200;27.914;2023-01-13T06:18:18;101968.69;;;5.78;nan
2401;BME280;1211;43.200;27.914;2023-01-13T06:20:48;101966.00;;;5.84;nan
2401;BME280;1211;43.200;27.914;2023-01-13T06:23:16;101967.72;;;5.95;nan
2401;BME280;1211;43.200;27.914;2023-01-13T06:25:45;101970.34;;;5.79;nan
2401;BME280;1211;43.200;27.914;2023-01-13T06:28:17;101975.06;;;5.89;nan
2401;BME280;1211;43.200;27.914;2023-01-13T06:30:46;101984.28;;;5.78;nan
2401;BME280;1211;43.200;27.914;2023-01-13T06:33:19;101981.56;;;5.83;nan
2401;BME280;1211;43.200;27.914;2023-01-13T06:35:54;101966.94;;;5.57;nan
2401;BME280;1211;43.200;27.914;2023-01-13T06:38:36;101974.06;;;5.58;nan
2401;BME280;1211;43.200;27.914;2023-01-13T06:41:08;101991.63;;;5.72;nan
2401;BME280;1211;43.200;27.914;2023-01-13T06:43:37;101984.09;;;5.90;nan
2401;BME280;1211;43.200;27.914;2023-01-13T06:46:03;101987.75;;;5.63;nan
2401;BME280;1211;43.200;27.914;2023-01-13T06:48:44;102003.03;;;6.01;nan
2401;BME280;1211;43.200;27.914;2023-01-13T06:51:13;101991.59;;;6.09;nan
2401;BME280;1211;43.200;27.914;2023-01-13T06:53:44;102002.72;;;5.93;nan
2401;BME280;1211;43.200;27.914;2023-01-13T06:56:12;101939.53;;;5.47;nan
2401;BME280;1211;43.200;27.914;2023-01-13T06:58:39;101995.81;;;5.85;nan
2401;BME280;1211;43.200;27.914;2023-01-13T07:01:06;101991.63;;;5.72;nan
2401;BME280;1211;43.200;27.914;2023-01-13T07:03:33;101994.59;;;6.08;nan
2401;BME280;1211;43.200;27.914;2023-01-13T07:06:03;101998.88;;;5.94;nan
2401;BME280;1211;43.200;27.914;2023-01-13T07:13:56;102011.66;;;6.35;nan
2401;BME280;1211;43.200;27.914;2023-01-13T07:16:40;102009.72;;;6.31;nan
2401;BME280;1211;43.200;27.914;2023-01-13T07:19:08;102007.44;;;6.12;nan
2401;BME280;1211;43.200;27.914;2023-01-13T07:21:36;101996.94;;;5.89;nan
2401;BME280;1211;43.200;27.914;2023-01-13T07:24:03;102000.53;;;5.95;nan
2401;BME280;1211;43.200;27.914;2023-01-13T07:26:30;101992.88;;;5.97;nan
2401;BME280;1211;43.200;27.914;2023-01-13T07:28:59;101996.84;;;6.21;nan
2401;BME280;1211;43.200;27.914;2023-01-13T07:31:27;101987.81;;;6.20;nan
2401;BME280;1211;43.200;27.914;2023-01-13T07:33:55;101990.50;;;6.10;nan
2401;BME280;1211;43.200;27.914;2023-01-13T07:36:22;101988.72;;;6.51;nan
2401;BME280;1211;43.200;27.914;2023-01-13T07:38:49;101994.78;;;6.69;nan
2401;BME280;1211;43.200;27.914;2023-01-13T07:41:18;101992.88;;;6.74;nan
2401;BME280;1211;43.200;27.914;2023-01-13T07:44:04;101993.47;;;6.96;nan
2401;BME280;1211;43.200;27.914;2023-01-13T07:46:31;101986.03;;;6.77;nan
2401;BME280;1211;43.200;27.914;2023-01-13T07:48:58;101995.00;;;6.47;nan
2401;BME280;1211;43.200;27.914;2023-01-13T07:51:25;101992.53;;;6.45;nan
2401;BME280;1211;43.200;27.914;2023-01-13T07:53:52;102002.44;;;6.56;nan
2401;BME280;1211;43.200;27.914;2023-01-13T07:56:21;102013.16;;;6.73;nan
2401;BME280;1211;43.200;27.914;2023-01-13T07:58:49;101996.97;;;6.56;nan
2401;BME280;1211;43.200;27.914;2023-01-13T08:01:19;102012.84;;;6.70;nan
2401;BME280;1211;43.200;27.914;2023-01-13T08:03:45;102003.56;;;6.76;nan
2401;BME280;1211;43.200;27.914;2023-01-13T08:06:13;99858.47;;;-6.25;nan
2401;BME280;1211;43.200;27.914;2023-01-13T08:08:54;102000.31;;;6.84;nan
2401;BME280;1211;43.200;27.914;2023-01-13T08:11:21;101998.13;;;7.11;nan
2401;BME280;1211;43.200;27.914;2023-01-13T08:13:49;102001.38;;;6.83;nan
2401;BME280;1211;43.200;27.914;2023-01-13T08:16:15;102003.31;;;6.87;nan
2401;BME280;1211;43.200;27.914;2023-01-13T08:18:44;102000.84;;;6.86;nan
2401;BME280;1211;43.200;27.914;2023-01-13T08:21:11;101996.75;;;7.09;nan
2401;BME280;1211;43.200;27.914;2023-01-13T08:23:39;101995.66;;;6.89;nan
2401;BME280;1211;43.200;27.914;2023-01-13T08:26:06;101999.75;;;6.92;nan
2401;BME280;1211;43.200;27.914;2023-01-13T08:28:33;101998.41;;;6.94;nan
2401;BME280;1211;43.200;27.914;2023-01-13T08:31:05;101998.66;;;6.83;nan
2401;BME280;1211;43.200;27.914;2023-01-13T08:33:32;101997.56;;;6.99;nan
2401;BME280;1211;43.200;27.914;2023-01-13T08:36:03;102001.38;;;6.73;nan
2401;BME280;1211;43.200;27.914;2023-01-13T08:38:29;101993.75;;;7.00;nan
2401;BME280;1211;43.200;27.914;2023-01-13T08:40:57;101991.25;;;6.78;nan
2401;BME280;1211;43.200;27.914;2023-01-13T08:43:39;101993.75;;;7.05;nan
2401;BME280;1211;43.200;27.914;2023-01-13T08:46:07;101980.00;;;6.70;nan
2401;BME280;1211;43.200;27.914;2023-01-13T08:48:34;101995.09;;;6.92;nan
2401;BME280;1211;43.200;27.914;2023-01-13T08:51:04;101982.41;;;6.41;nan
2401;BME280;1211;43.200;27.914;2023-01-13T08:53:31;101994.84;;;6.94;nan
2401;BME280;1211;43.200;27.914;2023-01-13T08:55:58;101989.91;;;7.16;nan
2401;BME280;1211;43.200;27.914;2023-01-13T08:58:25;101988.22;;;6.65;nan
2401;BME280;1211;43.200;27.914;2023-01-13T09:00:52;101985.44;;;6.49;nan
2401;BME280;1211;43.200;27.914;2023-01-13T09:03:19;101982.53;;;7.17;nan
2401;BME280;1211;43.200;27.914;2023-01-13T12:39:22;101868.69;;;9.26;nan
2401;BME280;1211;43.200;27.914;2023-01-13T12:41:55;101862.13;;;8.93;nan
2401;BME280;1211;43.200;27.914;2023-01-13T12:47:33;101871.50;;;9.68;nan
2401;BME280;1211;43.200;27.914;2023-01-13T12:55:52;101871.75;;;9.48;nan
2401;BME280;1211;43.200;27.914;2023-01-13T12:58:29;101875.25;;;9.54;nan
2401;BME280;1211;43.200;27.914;2023-01-13T13:00:57;101874.31;;;9.63;nan
2401;BME280;1211;43.200;27.914;2023-01-13T19:14:53;101971.63;;;8.16;nan
2401;BME280;1211;43.200;27.914;2023-01-13T19:17:20;101984.81;;;8.14;nan
2401;BME280;1211;43.200;27.914;2023-01-13T19:19:48;101984.84;;;8.04;nan
2401;BME280;1211;43.200;27.914;2023-01-13T19:22:17;101982.09;;;8.04;nan
2401;BME280;1211;43.200;27.914;2023-01-13T19:24:46;101983.94;;;8.19;nan
2401;BME280;1211;43.200;27.914;2023-01-13T19:27:14;101976.56;;;8.14;nan
2401;BME280;1211;43.200;27.914;2023-01-13T19:29:41;101993.06;;;8.09;nan
2401;BME280;1211;43.200;27.914;2023-01-13T19:32:11;101986.22;;;7.97;nan
2401;BME280;1211;43.200;27.914;2023-01-13T19:34:38;100625.91;;;-0.51;nan
2401;BME280;1211;43.200;27.914;2023-01-13T19:37:06;102006.25;;;7.97;nan
2401;BME280;1211;43.200;27.914;2023-01-13T19:39:34;102003.50;;;8.02;nan
2401;BME280;1211;43.200;27.914;2023-01-13T19:42:02;101998.06;;;7.87;nan
2401;BME280;1211;43.200;27.914;2023-01-13T19:44:46;101504.66;;;4.94;nan
2401;BME280;1211;43.200;27.914;2023-01-13T19:47:32;101990.69;;;7.77;nan
2401;BME280;1211;43.200;27.914;2023-01-13T19:50:00;101992.00;;;7.95;nan
2401;BME280;1211;43.200;27.914;2023-01-13T19:52:30;101987.31;;;8.06;nan
2401;BME280;1211;43.200;27.914;2023-01-13T19:54:57;101992.22;;;8.09;nan
2401;BME280;1211;43.200;27.914;2023-01-13T19:57:25;101984.56;;;8.11;nan
2401;BME280;1211;43.200;27.914;2023-01-13T19:59:52;101984.25;;;8.17;nan
2401;BME280;1211;43.200;27.914;2023-01-13T20:02:20;101984.81;;;8.09;nan
2401;BME280;1211;43.200;27.914;2023-01-13T20:04:53;101983.78;;;8.00;nan
2401;BME280;1211;43.200;27.914;2023-01-13T20:07:21;101988.75;;;7.88;nan
2401;BME280;1211;43.200;27.914;2023-01-13T20:09:48;101985.47;;;7.76;nan
2401;BME280;1211;43.200;27.914;2023-01-13T20:12:16;101140.19;;;2.49;nan
2401;BME280;1211;43.200;27.914;2023-01-13T20:14:44;101982.47;;;7.62;nan
2401;BME280;1211;43.200;27.914;2023-01-13T20:17:16;101983.03;;;7.44;nan
2401;BME280;1211;43.200;27.914;2023-01-13T20:19:43;101983.25;;;7.88;nan
2401;BME280;1211;43.200;27.914;2023-01-13T20:22:12;101980.81;;;7.76;nan
2401;BME280;1211;43.200;27.914;2023-01-13T20:24:39;101976.44;;;7.75;nan
2401;BME280;1211;43.200;27.914;2023-01-13T20:27:06;101975.34;;;7.56;nan
2401;BME280;1211;43.200;27.914;2023-01-13T20:29:33;101978.66;;;7.63;nan
2401;BME280;1211;43.200;27.914;2023-01-13T20:32:02;101974.31;;;7.42;nan
2401;BME280;1211;43.200;27.914;2023-01-13T20:34:29;101968.81;;;7.37;nan
2401;BME280;1211;43.200;27.914;2023-01-13T20:36:57;101976.75;;;7.28;nan
2401;BME280;1211;43.200;27.914;2023-01-13T20:39:26;101968.56;;;7.13;nan
2401;BME280;1211;43.200;27.914;2023-01-13T20:41:53;101975.13;;;7.17;nan
2401;BME280;1211;43.200;27.914;2023-01-13T20:44:37;101979.50;;;7.18;nan
2401;BME280;1211;43.200;27.914;2023-01-13T20:47:04;101977.00;;;6.91;nan
2401;BME280;1211;43.200;27.914;2023-01-13T20:49:32;101980.59;;;7.17;nan
2401;BME280;1211;43.200;27.914;2023-01-13T20:52:02;101976.22;;;7.16;nan
2401;BME280;1211;43.200;27.914;2023-01-13T20:54:35;101980.06;;;7.40;nan
2401;BME280;1211;43.200;27.914;2023-01-13T20:57:02;101985.50;;;7.66;nan
2401;BME280;1211;43.200;27.914;2023-01-13T20:59:29;101981.94;;;7.55;nan
2401;BME280;1211;43.200;27.914;2023-01-13T21:01:56;101986.59;;;7.65;nan
2401;BME280;1211;43.200;27.914;2023-01-13T21:04:23;101987.69;;;7.64;nan
2401;BME280;1211;43.200;27.914;2023-01-13T21:06:50;101983.03;;;7.69;nan
2401;BME280;1211;43.200;27.914;2023-01-13T21:09:17;101982.41;;;7.93;nan
2401;BME280;1211;43.200;27.914;2023-01-13T21:11:46;101980.75;;;7.92;nan
2401;BME280;1211;43.200;27.914;2023-01-13T21:14:30;101986.00;;;7.88;nan
2401;BME280;1211;43.200;27.914;2023-01-13T21:17:14;101976.94;;;7.93;nan
2401;BME280;1211;43.200;27.914;2023-01-13T21:20:12;101979.91;;;8.01;nan
2401;BME280;1211;43.200;27.914;2023-01-13T21:22:38;101978.25;;;8.10;nan
2401;BME280;1211;43.200;27.914;2023-01-13T21:25:06;101985.91;;;8.08;nan
2401;BME280;1211;43.200;27.914;2023-01-13T21:27:34;101978.53;;;8.04;nan
2401;BME280;1211;43.200;27.914;2023-01-13T21:30:02;101979.41;;;7.94;nan
2401;BME280;1211;43.200;27.914;2023-01-13T21:32:29;101976.34;;;8.06;nan
2401;BME280;1211;43.200;27.914;2023-01-13T21:34:57;101976.84;;;8.13;nan
2401;BME280;1211;43.200;27.914;2023-01-13T21:37:24;101980.22;;;7.95;nan
2401;BME280;1211;43.200;27.914;2023-01-13T21:39:51;101978.44;;;8.24;nan
2401;BME280;1211;43.200;27.914;2023-01-13T21:42:18;101959.84;;;8.16;nan
2401;BME280;1211;43.200;27.914;2023-01-13T21:45:04;101965.03;;;8.12;nan
2401;BME280;1211;43.200;27.914;2023-01-13T21:47:50;101964.56;;;7.95;nan
2401;BME280;1211;43.200;27.914;2023-01-13T21:50:17;101965.44;;;7.80;nan
2401;BME280;1211;43.200;27.914;2023-01-13T21:52:45;101958.91;;;7.71;nan
2401;BME280;1211;43.200;27.914;2023-01-13T21:55:12;101960.22;;;7.79;nan
2401;BME280;1211;43.200;27.914;2023-01-13T21:57:44;101959.31;;;8.09;nan
2401;BME280;1211;43.200;27.914;2023-01-13T22:00:16;101952.41;;;8.21;nan
2401;BME280;1211;43.200;27.914;2023-01-13T22:02:44;101953.13;;;8.42;nan
2401;BME280;1211;43.200;27.914;2023-01-13T22:05:11;101950.19;;;8.28;nan
2401;BME280;1211;43.200;27.914;2023-01-13T22:07:39;101721.88;;;6.69;nan
2401;BME280;1211;43.200;27.914;2023-01-13T22:10:09;101959.63;;;7.97;nan
2401;BME280;1211;43.200;27.914;2023-01-13T22:12:36;101964.78;;;8.09;nan
2401;BME280;1211;43.200;27.914;2023-01-13T22:15:03;101560.63;;;5.37;nan
2401;BME280;1211;43.200;27.914;2023-01-13T22:17:32;100218.13;;;-2.86;nan
2401;BME280;1211;43.200;27.914;2023-01-13T22:20:00;100770.69;;;0.47;nan
2401;BME280;1211;43.200;27.914;2023-01-13T22:22:28;100869.97;;;0.95;nan
2401;BME280;1211;43.200;27.914;2023-01-13T22:25:00;101819.03;;;6.82;nan
2401;BME280;1211;43.200;27.914;2023-01-13T22:27:27;101861.16;;;7.11;nan
2401;BME280;1211;43.200;27.914;2023-01-13T22:29:55;101958.63;;;7.68;nan
2401;BME280;1211;43.200;27.914;2023-01-13T22:32:22;101962.75;;;7.65;nan
2401;BME280;1211;43.200;27.914;2023-01-13T22:34:50;101951.47;;;7.82;nan
2401;BME280;1211;43.200;27.914;2023-01-13T22:37:19;101943.56;;;7.65;nan
2401;BME280;1211;43.200;27.914;2023-01-13T22:39:46;101950.94;;;7.70;nan
2401;BME280;1211;43.200;27.914;2023-01-13T22:42:13;101946.28;;;7.70;nan
2401;BME280;1211;43.200;27.914;2023-01-13T22:44:39;101941.63;;;7.66;nan
2401;BME280;1211;43.200;27.914;2023-01-13T22:47:08;101956.97;;;7.67;nan
2401;BME280;1211;43.200;27.914;2023-01-13T22:49:35;101947.16;;;7.45;nan
2401;BME280;1211;43.200;27.914;2023-01-13T22:52:03;101954.25;;;7.57;nan
2401;BME280;1211;43.200;27.914;2023-01-13T22:54:31;101949.59;;;7.57;nan
2401;BME280;1211;43.200;27.914;2023-01-13T22:56:58;101953.69;;;7.65;nan
2401;BME280;1211;43.200;27.914;2023-01-13T22:59:25;101948.78;;;7.52;nan
2401;BME280;1211;43.200;27.914;2023-01-13T23:01:52;101947.13;;;7.51;nan
2401;BME280;1211;43.200;27.914;2023-01-13T23:04:19;101948.53;;;7.38;nan
2401;BME280;1211;43.200;27.914;2023-01-13T23:06:46;101946.63;;;7.33;nan
2401;BME280;1211;43.200;27.914;2023-01-13T23:09:14;101951.03;;;7.19;nan
2401;BME280;1211;43.200;27.914;2023-01-13T23:11:41;101952.13;;;7.18;nan
2401;BME280;1211;43.200;27.914;2023-01-13T23:14:11;101947.69;;;7.37;nan
2401;BME280;1211;43.200;27.914;2023-01-13T23:16:39;101941.69;;;7.40;nan
2401;BME280;1211;43.200;27.914;2023-01-13T23:19:06;101943.34;;;7.41;nan
2401;BME280;1211;43.200;27.914;2023-01-13T23:21:34;101933.72;;;7.44;nan
2401;BME280;1211;43.200;27.914;2023-01-13T23:24:01;101929.31;;;7.53;nan
2401;BME280;1211;43.200;27.914;2023-01-13T23:26:30;101937.53;;;7.63;nan
2401;BME280;1211;43.200;27.914;2023-01-13T23:28:57;101932.63;;;7.40;nan
2401;BME280;1211;43.200;27.914;2023-01-13T23:31:25;101929.91;;;7.40;nan
2401;BME280;1211;43.200;27.914;2023-01-13T23:33:52;101929.63;;;7.41;nan
2401;BME280;1211;43.200;27.914;2023-01-13T23:36:19;101932.38;;;7.41;nan
2401;BME280;1211;43.200;27.914;2023-01-13T23:38:47;101933.47;;;7.40;nan
2401;BME280;1211;43.200;27.914;2023-01-13T23:41:15;101924.41;;;7.40;nan
2401;BME280;1211;43.200;27.914;2023-01-13T23:43:47;101929.63;;;7.47;nan
2401;BME280;1211;43.200;27.914;2023-01-13T23:46:14;101919.78;;;7.30;nan